createdAt,value
2022-10-26T00:02:37.066Z,9.13
2022-10-26T00:05:21.638Z,5.67
2022-10-26T00:07:57.276Z,8.73
2022-10-26T00:10:46.719Z,5.97
2022-10-26T00:13:30.280Z,9.13
2022-10-26T00:16:12.567Z,7.53
2022-10-26T00:19:00.912Z,8.60
2022-10-26T00:21:51.755Z,8.17
2022-10-26T00:24:33.229Z,7.53
2022-10-26T00:27:09.412Z,7.30
2022-10-26T00:30:23.849Z,7.50
2022-10-26T00:33:31.149Z,6.00
2022-10-26T00:36:32.550Z,6.97
2022-10-26T00:39:21.441Z,7.57
2022-10-26T00:42:02.211Z,12.47
2022-10-26T00:48:17.651Z,6.93
2022-10-26T00:50:54.079Z,7.57
2022-10-26T00:53:49.815Z,7.87
2022-10-26T00:56:57.151Z,6.40
2022-10-26T00:59:43.493Z,5.67
2022-10-26T01:08:47.551Z,7.63
2022-10-26T01:11:23.323Z,5.87
2022-10-26T01:13:58.790Z,8.37
2022-10-26T01:16:53.944Z,7.80
2022-10-26T01:20:12.160Z,6.53
2022-10-26T01:22:57.139Z,7.27
2022-10-26T01:26:06.547Z,6.63
2022-10-26T01:29:18.524Z,8.57
2022-10-26T01:32:02.886Z,6.17
2022-10-26T01:34:43.815Z,5.03
2022-10-26T01:40:43.380Z,5.00
2022-10-26T01:43:20.881Z,8.47
2022-10-26T01:46:04.810Z,11.30
2022-10-26T01:48:52.482Z,7.63
2022-10-26T01:51:34.126Z,7.27
2022-10-26T01:54:08.958Z,7.93
2022-10-26T01:56:58.183Z,7.43
2022-10-26T02:03:18.327Z,8.37
2022-10-26T02:06:10.403Z,6.27
2022-10-26T02:08:55.668Z,9.63
2022-10-26T02:11:50.164Z,5.60
2022-10-26T02:14:34.863Z,4.80
2022-10-26T02:17:21.517Z,6.13
2022-10-26T02:20:03.514Z,5.70
2022-10-26T02:22:50.390Z,3.70
2022-10-26T02:25:36.400Z,5.50
2022-10-26T02:28:12.943Z,5.20
2022-10-26T02:30:58.315Z,8.07
2022-10-26T02:37:04.667Z,6.90
2022-10-26T02:42:52.093Z,7.43
2022-10-26T02:45:37.470Z,5.47
2022-10-26T02:48:26.318Z,5.07
2022-10-26T03:04:45.786Z,5.37
2022-10-26T03:21:06.923Z,7.63
2022-10-26T03:27:02.251Z,7.73
2022-10-26T03:29:48.843Z,8.93
2022-10-26T03:33:16.206Z,5.80
2022-10-26T03:40:19.739Z,4.40
2022-10-26T03:48:41.458Z,9.33
2022-10-26T03:51:31.987Z,4.40
2022-10-26T03:54:09.886Z,6.33
2022-10-26T03:57:15.876Z,5.47
2022-10-26T04:00:16.199Z,6.20
2022-10-26T04:03:06.752Z,4.50
2022-10-26T04:15:58.318Z,5.70
2022-10-26T04:30:30.083Z,11.30
2022-10-26T04:48:09.284Z,13.07
2022-10-26T04:50:38.112Z,24.83
2022-10-26T04:53:06.953Z,11.27
2022-10-26T04:55:34.714Z,11.93
2022-10-26T04:58:02.593Z,20.60
2022-10-26T05:00:32.799Z,11.70
2022-10-26T05:03:00.620Z,9.67
2022-10-26T05:05:30.408Z,19.57
2022-10-26T05:07:58.965Z,13.40
2022-10-26T05:10:27.658Z,13.00
2022-10-26T05:12:56.717Z,12.93
2022-10-26T05:15:24.935Z,8.90
2022-10-26T05:17:56.436Z,10.87
2022-10-26T05:20:29.308Z,8.80
2022-10-26T05:22:58.850Z,12.87
2022-10-26T05:25:26.651Z,17.07
2022-10-26T05:27:58.537Z,11.87
2022-10-26T05:30:26.169Z,24.67
2022-10-26T05:32:57.447Z,15.60
2022-10-26T05:35:25.816Z,17.67
2022-10-26T05:37:53.366Z,22.43
2022-10-26T05:40:23.256Z,9.93
2022-10-26T05:42:52.050Z,33.37
2022-10-26T05:45:19.915Z,17.43
2022-10-26T05:47:47.979Z,16.60
2022-10-26T05:50:15.961Z,11.23
2022-10-26T05:52:44.965Z,11.13
2022-10-26T05:55:14.624Z,11.97
2022-10-26T05:57:44.193Z,12.37
2022-10-26T06:00:17.603Z,12.93
2022-10-26T06:02:58.042Z,8.97
2022-10-26T06:05:29.068Z,8.70
2022-10-26T06:07:57.166Z,10.47
2022-10-26T06:10:25.581Z,7.13
2022-10-26T06:12:55.065Z,7.00
2022-10-26T06:15:23.491Z,7.50
2022-10-26T06:18:00.420Z,10.83
2022-10-26T06:20:45.859Z,8.97
2022-10-26T06:23:33.712Z,8.20
2022-10-26T06:26:08.320Z,7.40
2022-10-26T06:28:46.196Z,8.47
2022-10-26T06:31:16.408Z,8.77
2022-10-26T06:33:48.615Z,8.40
2022-10-26T06:36:23.297Z,12.63
2022-10-26T06:38:54.610Z,10.37
2022-10-26T06:41:23.677Z,14.90
2022-10-26T06:43:53.611Z,6.20
2022-10-26T06:46:31.314Z,5.77
2022-10-26T06:49:06.742Z,8.63
2022-10-26T06:51:40.657Z,7.67
2022-10-26T06:54:15.267Z,13.27
2022-10-26T06:56:44.464Z,22.10
2022-10-26T06:59:21.934Z,12.00
2022-10-26T07:01:49.588Z,19.17
2022-10-26T07:04:17.098Z,12.40
2022-10-26T07:06:44.690Z,10.87
2022-10-26T07:09:12.274Z,9.57
2022-10-26T07:11:39.962Z,5.67
2022-10-26T07:14:07.438Z,15.07
2022-10-26T07:16:37.415Z,18.57
2022-10-26T07:19:05.106Z,9.40
2022-10-26T07:21:32.810Z,9.03
2022-10-26T07:24:00.385Z,14.40
2022-10-26T07:26:28.222Z,8.10
2022-10-26T07:28:55.863Z,12.13
2022-10-26T07:31:23.370Z,16.17
2022-10-26T07:33:54.647Z,20.73
2022-10-26T07:36:22.400Z,18.70
2022-10-26T07:38:53.089Z,9.77
2022-10-26T07:41:20.754Z,8.83
2022-10-26T07:43:50.719Z,8.83
2022-10-26T07:46:18.696Z,8.63
2022-10-26T07:48:49.044Z,9.33
2022-10-26T07:51:17.930Z,12.90
2022-10-26T07:53:45.518Z,11.60
2022-10-26T07:56:14.110Z,8.60
2022-10-26T07:58:41.784Z,10.93
2022-10-26T08:01:11.708Z,8.63
2022-10-26T08:03:39.646Z,8.10
2022-10-26T08:06:09.558Z,19.03
2022-10-26T08:08:41.404Z,11.50
2022-10-26T08:11:11.309Z,10.80
2022-10-26T08:13:38.979Z,7.10
2022-10-26T08:16:07.833Z,8.67
2022-10-26T08:18:35.463Z,14.13
2022-10-26T08:21:10.853Z,8.00
2022-10-26T08:23:41.815Z,6.27
2022-10-26T08:26:11.417Z,8.73
2022-10-26T08:28:39.644Z,12.20
2022-10-26T08:31:08.277Z,9.00
2022-10-26T08:33:35.819Z,9.07
2022-10-26T08:36:06.596Z,9.30
2022-10-26T08:38:34.758Z,8.30
2022-10-26T08:41:10.592Z,8.10
2022-10-26T08:43:42.269Z,8.70
2022-10-26T08:46:14.953Z,9.63
2022-10-26T08:48:46.548Z,8.13
2022-10-26T08:51:21.522Z,10.67
2022-10-26T08:53:53.559Z,9.17
2022-10-26T08:56:25.984Z,8.97
2022-10-26T08:58:57.391Z,8.37
2022-10-26T09:01:25.315Z,7.50
2022-10-26T09:03:54.293Z,9.40
2022-10-26T09:06:28.749Z,7.93
2022-10-26T09:09:04.452Z,8.20
2022-10-26T09:11:46.596Z,7.70
2022-10-26T09:14:20.681Z,6.37
2022-10-26T09:16:58.891Z,5.53
2022-10-26T09:20:00.157Z,13.23
2022-10-26T09:22:33.819Z,4.17
2022-10-26T09:25:12.845Z,7.20
2022-10-26T09:27:46.024Z,5.53
2022-10-26T09:30:16.829Z,5.97
2022-10-26T09:32:48.324Z,6.97
2022-10-26T09:35:20.368Z,4.40
2022-10-26T09:37:52.889Z,7.30
2022-10-26T09:40:25.964Z,5.17
2022-10-26T09:43:02.187Z,4.53
2022-10-26T09:45:33.068Z,4.37
2022-10-26T09:48:07.485Z,5.17
2022-10-26T09:50:37.902Z,9.00
2022-10-26T09:53:05.902Z,8.03
2022-10-26T09:55:35.614Z,5.80
2022-10-26T09:58:11.569Z,5.77
2022-10-26T10:00:40.222Z,5.90
2022-10-26T10:03:20.779Z,5.37
2022-10-26T10:05:51.612Z,4.80
2022-10-26T10:08:22.604Z,11.43
2022-10-26T10:11:04.084Z,4.73
2022-10-26T10:13:35.267Z,4.50
2022-10-26T10:16:06.476Z,2.83
2022-10-26T10:18:36.160Z,3.53
2022-10-26T10:21:05.858Z,2.13
2022-10-26T10:23:34.840Z,4.93
2022-10-26T10:26:07.467Z,4.47
2022-10-26T10:28:36.910Z,3.77
2022-10-26T10:33:47.135Z,5.63
2022-10-26T10:36:18.536Z,3.40
2022-10-26T10:38:48.641Z,4.30
2022-10-26T10:41:22.885Z,3.90
2022-10-26T10:43:56.872Z,3.03
2022-10-26T10:46:28.224Z,2.83
2022-10-26T10:49:08.878Z,3.47
2022-10-26T10:51:43.511Z,3.83
2022-10-26T10:54:24.054Z,1.47
2022-10-26T10:56:55.299Z,5.23
2022-10-26T11:00:00.241Z,5.20
2022-10-26T11:02:44.394Z,6.40
2022-10-26T11:05:28.421Z,2.17
2022-10-26T11:08:03.303Z,3.00
2022-10-26T11:10:37.451Z,1.70
2022-10-26T11:13:11.786Z,1.50
2022-10-26T11:15:44.566Z,3.63
2022-10-26T11:18:19.817Z,3.00
2022-10-26T11:20:52.952Z,1.83
2022-10-26T11:23:26.180Z,1.77
2022-10-26T11:25:57.365Z,3.23
2022-10-26T11:28:42.610Z,3.53
2022-10-26T11:31:16.639Z,1.77
2022-10-26T11:33:51.913Z,3.63
2022-10-26T11:36:24.217Z,1.60
2022-10-26T11:38:59.948Z,2.23
2022-10-26T11:41:36.059Z,3.17
2022-10-26T11:44:12.805Z,2.00
2022-10-26T11:46:44.447Z,1.63
2022-10-26T11:49:19.535Z,1.53
2022-10-26T11:51:53.382Z,1.90
2022-10-26T11:54:26.509Z,1.60
2022-10-26T11:56:56.839Z,2.13
2022-10-26T11:59:30.690Z,3.47
2022-10-26T12:02:05.548Z,2.63
2022-10-26T12:04:38.373Z,1.73
2022-10-26T12:07:16.509Z,1.70
2022-10-26T12:09:45.469Z,1.37
2022-10-26T12:12:23.515Z,1.63
2022-10-26T12:14:57.454Z,1.60
2022-10-26T12:17:32.100Z,1.40
2022-10-26T12:20:11.756Z,5.87
2022-10-26T12:22:40.899Z,3.47
2022-10-26T12:25:20.781Z,1.87
2022-10-26T12:27:54.805Z,1.37
2022-10-26T12:30:31.083Z,1.33
2022-10-26T12:33:07.869Z,2.97
2022-10-26T12:35:53.159Z,4.10
2022-10-26T12:38:58.267Z,1.63
2022-10-26T12:41:29.649Z,1.37
2022-10-26T12:44:06.168Z,4.43
2022-10-26T12:46:41.807Z,2.33
2022-10-26T12:49:39.405Z,2.07
2022-10-26T12:52:21.828Z,2.93
2022-10-26T12:58:25.088Z,4.03
2022-10-26T13:01:13.254Z,1.57
2022-10-26T13:03:52.894Z,3.50
2022-10-26T13:06:41.016Z,1.77
2022-10-26T13:09:19.817Z,2.37
2022-10-26T13:11:51.069Z,5.57
2022-10-26T13:14:24.137Z,6.00
2022-10-26T13:16:51.862Z,1.60
2022-10-26T13:19:27.483Z,1.57
2022-10-26T13:21:58.637Z,1.60
2022-10-26T13:24:31.480Z,4.27
2022-10-26T13:27:26.437Z,1.57
2022-10-26T13:30:33.989Z,2.03
2022-10-26T13:33:03.618Z,1.60
2022-10-26T13:35:32.767Z,4.97
2022-10-26T13:38:09.451Z,1.80
2022-10-26T13:40:39.644Z,2.50
2022-10-26T13:43:14.370Z,1.80
2022-10-26T13:45:50.377Z,2.27
2022-10-26T13:48:21.060Z,2.83
2022-10-26T13:50:52.059Z,1.73
2022-10-26T13:53:23.557Z,5.90
2022-10-26T13:56:06.745Z,2.37
2022-10-26T13:58:38.062Z,2.00
2022-10-26T14:01:14.828Z,1.63
2022-10-26T14:03:43.491Z,3.47
2022-10-26T14:06:17.740Z,2.17
2022-10-26T14:08:47.561Z,3.30
2022-10-26T14:11:20.534Z,1.97
2022-10-26T14:13:50.061Z,2.67
2022-10-26T14:16:20.422Z,1.97
2022-10-26T14:18:49.677Z,1.50
2022-10-26T14:21:20.969Z,1.77
2022-10-26T14:23:52.324Z,3.37
2022-10-26T14:26:24.833Z,2.67
2022-10-26T14:28:55.044Z,2.87
2022-10-26T14:31:26.145Z,1.53
2022-10-26T14:33:54.344Z,2.57
2022-10-26T14:36:26.416Z,1.77
2022-10-26T14:38:58.866Z,2.50
2022-10-26T14:41:29.229Z,2.10
2022-10-26T14:43:59.706Z,2.90
2022-10-26T14:46:30.106Z,1.80
2022-10-26T14:49:00.122Z,2.53
2022-10-26T14:51:29.169Z,4.37
2022-10-26T14:53:59.501Z,4.70
2022-10-26T14:56:32.656Z,2.17
2022-10-26T14:59:00.681Z,3.10
2022-10-26T15:01:36.262Z,3.70
2022-10-26T15:04:06.217Z,1.70
2022-10-26T15:06:45.573Z,2.87
2022-10-26T15:09:34.541Z,3.47
2022-10-26T15:12:05.986Z,1.53
2022-10-26T15:14:35.688Z,4.63
2022-10-26T15:17:03.784Z,2.73
2022-10-26T15:19:31.626Z,2.83
2022-10-26T15:22:00.141Z,5.70
2022-10-26T15:24:34.446Z,3.27
2022-10-26T15:27:14.083Z,3.23
2022-10-26T15:29:44.713Z,3.60
2022-10-26T15:32:28.475Z,4.00
2022-10-26T15:35:24.238Z,3.60
2022-10-26T15:37:55.106Z,4.63
2022-10-26T15:43:01.444Z,2.37
2022-10-26T15:45:32.914Z,4.77
2022-10-26T15:48:16.718Z,3.60
2022-10-26T15:50:44.352Z,5.37
2022-10-26T15:53:19.088Z,8.17
2022-10-26T15:55:46.921Z,6.23
2022-10-26T15:58:17.964Z,7.57
2022-10-26T16:00:45.984Z,7.87
2022-10-26T16:03:17.196Z,7.50
2022-10-26T16:05:44.763Z,6.43
2022-10-26T16:08:17.862Z,5.93
2022-10-26T16:10:47.374Z,6.30
2022-10-26T16:13:20.112Z,6.97
2022-10-26T16:15:48.569Z,3.90
2022-10-26T16:18:19.071Z,4.70
2022-10-26T16:20:47.360Z,5.87
2022-10-26T16:23:17.476Z,4.57
2022-10-26T16:25:47.240Z,6.37
2022-10-26T16:28:17.637Z,7.00
2022-10-26T16:30:45.686Z,5.40
2022-10-26T16:33:13.717Z,5.03
2022-10-26T16:35:41.482Z,4.40
2022-10-26T16:38:09.807Z,5.90
2022-10-26T16:40:37.454Z,4.27
2022-10-26T16:43:05.504Z,6.07
2022-10-26T16:45:34.821Z,4.53
2022-10-26T16:48:05.782Z,4.60
2022-10-26T16:50:36.306Z,6.07
2022-10-26T16:53:04.196Z,9.80
2022-10-26T16:55:34.574Z,8.03
2022-10-26T16:58:04.547Z,9.17
2022-10-26T17:00:35.500Z,9.27
2022-10-26T17:03:07.260Z,7.87
2022-10-26T17:05:37.686Z,7.17
2022-10-26T17:08:09.184Z,6.30
2022-10-26T17:10:40.753Z,6.67
2022-10-26T17:13:11.386Z,7.63
2022-10-26T17:15:39.191Z,6.33
2022-10-26T17:18:10.759Z,7.03
2022-10-26T17:23:21.583Z,8.53
2022-10-26T17:25:54.980Z,9.37
2022-10-26T17:28:25.767Z,13.47
2022-10-26T17:31:02.198Z,10.10
2022-10-26T17:33:39.688Z,7.67
2022-10-26T17:36:08.769Z,6.07
2022-10-26T17:38:42.326Z,14.37
2022-10-26T17:41:15.068Z,8.97
2022-10-26T17:43:46.925Z,7.53
2022-10-26T17:46:18.915Z,7.17
2022-10-26T17:48:56.027Z,7.00
2022-10-26T17:51:27.843Z,8.30
2022-10-26T17:53:57.089Z,9.23
2022-10-26T17:56:30.011Z,11.10
2022-10-26T17:59:02.331Z,7.20
2022-10-26T18:01:35.012Z,9.27
2022-10-26T18:04:05.698Z,5.73
2022-10-26T18:06:34.342Z,9.53
2022-10-26T18:09:28.209Z,9.87
2022-10-26T18:12:00.651Z,10.10
2022-10-26T18:14:32.007Z,10.07
2022-10-26T18:19:50.686Z,11.37
2022-10-26T18:22:26.826Z,7.07
2022-10-26T18:24:56.335Z,7.37
2022-10-26T18:27:29.156Z,7.67
2022-10-26T18:29:57.745Z,10.63
2022-10-26T18:32:36.133Z,8.67
2022-10-26T18:35:13.530Z,10.30
2022-10-26T18:37:56.363Z,10.50
2022-10-26T18:40:33.333Z,9.50
2022-10-26T18:43:03.233Z,12.87
2022-10-26T18:45:32.346Z,9.57
2022-10-26T18:48:03.447Z,12.60
2022-10-26T18:50:32.575Z,10.73
2022-10-26T18:53:01.535Z,9.03
2022-10-26T18:55:32.474Z,8.37
2022-10-26T18:58:06.279Z,10.07
2022-10-26T19:00:34.121Z,8.83
2022-10-26T19:05:56.535Z,9.50
2022-10-26T19:08:38.737Z,10.20
2022-10-26T19:11:08.921Z,13.77
2022-10-26T19:13:51.394Z,11.60
2022-10-26T19:16:40.642Z,12.10
2022-10-26T19:19:12.206Z,8.97
2022-10-26T19:21:43.020Z,8.83
2022-10-26T19:24:13.568Z,12.67
2022-10-26T19:26:43.712Z,10.93
2022-10-26T19:29:15.302Z,16.03
2022-10-26T19:31:50.732Z,7.43
2022-10-26T19:34:22.167Z,9.87
2022-10-26T19:36:55.098Z,14.47
2022-10-26T19:39:26.681Z,9.97
2022-10-26T19:42:03.170Z,9.97
2022-10-26T19:44:35.284Z,9.97
2022-10-26T19:47:05.385Z,8.93
2022-10-26T19:49:34.736Z,12.63
2022-10-26T19:52:06.731Z,10.53
2022-10-26T19:54:34.348Z,8.87
2022-10-26T19:57:01.928Z,15.57
2022-10-26T19:59:30.060Z,9.83
2022-10-26T20:01:58.031Z,11.40
2022-10-26T20:04:25.641Z,10.67
2022-10-26T20:06:53.490Z,9.73
2022-10-26T20:09:22.527Z,11.60
2022-10-26T20:11:50.569Z,15.07
2022-10-26T20:14:18.052Z,13.47
2022-10-26T20:16:45.590Z,10.80
2022-10-26T20:19:13.169Z,10.70
2022-10-26T20:21:40.888Z,10.67
2022-10-26T20:24:10.318Z,9.70
2022-10-26T20:26:39.997Z,10.57
2022-10-26T20:29:07.592Z,8.20
2022-10-26T20:31:35.457Z,10.43
2022-10-26T20:34:05.376Z,10.17
2022-10-26T20:36:34.828Z,10.60
2022-10-26T20:39:06.878Z,11.77
2022-10-26T20:42:15.688Z,9.47
2022-10-26T20:44:50.053Z,11.33
2022-10-26T20:47:30.373Z,8.70
2022-10-26T20:50:11.271Z,9.20
2022-10-26T20:52:50.276Z,8.77
2022-10-26T20:55:39.508Z,6.50
2022-10-26T20:58:20.348Z,9.70
2022-10-26T21:00:54.239Z,9.47
2022-10-26T21:03:21.981Z,7.70
2022-10-26T21:05:49.766Z,10.00
2022-10-26T21:08:17.287Z,8.57
2022-10-26T21:10:44.857Z,11.80
2022-10-26T21:13:14.188Z,8.27
2022-10-26T21:15:41.696Z,10.43
2022-10-26T21:18:09.580Z,7.43
2022-10-26T21:20:37.173Z,12.53
2022-10-26T21:23:04.720Z,7.27
2022-10-26T21:25:32.415Z,9.33
2022-10-26T21:28:00.082Z,7.87
2022-10-26T21:30:29.025Z,12.83
2022-10-26T21:35:25.174Z,8.03
2022-10-26T21:37:52.933Z,11.77
2022-10-26T21:40:20.598Z,10.83
2022-10-26T21:42:50.974Z,9.33
2022-10-26T21:45:19.394Z,8.33
2022-10-26T21:47:52.432Z,7.20
2022-10-26T21:50:20.555Z,8.73
2022-10-26T21:52:48.264Z,6.27
2022-10-26T21:55:16.123Z,5.97
2022-10-26T21:57:43.588Z,8.17
2022-10-26T22:00:12.159Z,5.97
2022-10-26T22:02:42.267Z,7.47
2022-10-26T22:05:11.133Z,9.10
2022-10-26T22:07:38.591Z,8.40
2022-10-26T22:10:10.727Z,10.13
2022-10-26T22:12:38.789Z,9.80
2022-10-26T22:15:07.410Z,6.93
2022-10-26T22:17:38.041Z,6.93
2022-10-26T22:20:06.554Z,9.10
2022-10-26T22:22:35.448Z,8.03
2022-10-26T22:25:03.160Z,7.63
2022-10-26T22:27:30.962Z,6.40
2022-10-26T22:29:58.452Z,5.53
2022-10-26T22:32:26.002Z,10.67
2022-10-26T22:35:10.429Z,8.43
2022-10-26T22:37:44.343Z,11.90
2022-10-26T22:40:12.919Z,6.47
2022-10-26T22:42:40.448Z,7.50
2022-10-26T22:45:09.047Z,11.13
2022-10-26T22:47:36.519Z,8.40
2022-10-26T22:50:04.209Z,8.10
2022-10-26T22:52:31.655Z,8.13
2022-10-26T22:55:01.227Z,8.73
2022-10-26T22:57:29.651Z,10.30
2022-10-26T22:59:57.083Z,8.47
2022-10-26T23:02:24.714Z,9.07
2022-10-26T23:04:52.382Z,7.23
2022-10-26T23:07:19.844Z,9.77
2022-10-26T23:09:49.005Z,7.80
2022-10-26T23:12:17.896Z,4.67
2022-10-26T23:14:45.621Z,9.20
2022-10-26T23:17:13.191Z,7.20
2022-10-26T23:19:40.806Z,6.63
2022-10-26T23:22:08.565Z,6.53
2022-10-26T23:24:36.158Z,8.17
2022-10-26T23:27:03.684Z,6.83
2022-10-26T23:29:32.697Z,9.13
2022-10-26T23:32:00.236Z,5.40
2022-10-26T23:34:27.791Z,8.10
2022-10-26T23:36:55.371Z,7.97
2022-10-26T23:39:22.942Z,5.43
2022-10-26T23:41:50.918Z,6.07
2022-10-26T23:44:18.472Z,8.07
2022-10-26T23:46:48.093Z,9.63
2022-10-26T23:49:15.695Z,6.33
2022-10-26T23:51:43.411Z,8.37
2022-10-26T23:54:11.073Z,4.67
2022-10-26T23:56:38.863Z,5.20
2022-10-26T23:59:08.466Z,6.83
